createdAt,value
2022-09-14T00:00:06.318Z,99.94
2022-09-14T00:01:25.319Z,97.89
2022-09-14T00:02:08.596Z,96.04
2022-09-14T00:03:06.237Z,94.47
2022-09-14T00:04:06.076Z,95.46
2022-09-14T00:05:07.128Z,95.25
2022-09-14T00:06:06.824Z,94.71
2022-09-14T00:07:12.643Z,94.07
2022-09-14T00:08:08.373Z,94.28
2022-09-14T00:09:06.487Z,93.96
2022-09-14T00:10:07.701Z,94.07
2022-09-14T00:11:06.177Z,94.18
2022-09-14T00:12:16.445Z,93.75
2022-09-14T00:13:06.568Z,93.75
2022-09-14T00:14:06.012Z,94.07
2022-09-14T00:15:06.058Z,93.65
2022-09-14T00:16:05.995Z,93.65
2022-09-14T00:17:06.551Z,93.65
2022-09-14T00:18:19.406Z,93.96
2022-09-14T00:19:05.933Z,93.96
2022-09-14T00:20:05.861Z,93.75
2022-09-14T00:21:05.926Z,93.55
2022-09-14T00:22:05.976Z,93.86
2022-09-14T00:23:06.896Z,93.55
2022-09-14T00:24:14.372Z,93.86
2022-09-14T00:25:06.684Z,93.44
2022-09-14T00:26:06.765Z,94.07
2022-09-14T00:27:07.130Z,93.86
2022-09-14T00:28:06.800Z,93.65
2022-09-14T00:29:15.522Z,94.07
2022-09-14T00:30:06.818Z,93.96
2022-09-14T00:31:05.858Z,94.28
2022-09-14T00:32:06.027Z,94.07
2022-09-14T00:33:05.837Z,93.86
2022-09-14T00:34:05.636Z,93.86
2022-09-14T00:35:12.344Z,94.07
2022-09-14T00:36:05.961Z,93.96
2022-09-14T00:37:05.746Z,94.07
2022-09-14T00:38:06.515Z,93.86
2022-09-14T00:39:06.511Z,94.28
2022-09-14T00:40:07.011Z,94.28
2022-09-14T00:41:12.065Z,94.07
2022-09-14T00:42:06.848Z,94.07
2022-09-14T00:43:05.613Z,93.86
2022-09-14T00:44:07.738Z,94.18
2022-09-14T00:45:12.204Z,94.50
2022-09-14T00:46:14.026Z,94.60
2022-09-14T00:47:05.556Z,94.71
2022-09-14T00:48:06.476Z,94.71
2022-09-14T00:49:06.546Z,94.39
2022-09-14T00:50:06.811Z,94.28
2022-09-14T00:51:05.839Z,94.50
2022-09-14T00:52:12.017Z,94.07
2022-09-14T00:53:06.955Z,94.50
2022-09-14T00:54:05.489Z,94.50
2022-09-14T00:55:05.398Z,94.71
2022-09-14T00:56:07.394Z,94.60
2022-09-14T00:57:06.715Z,94.60
2022-09-14T00:58:13.973Z,94.50
2022-09-14T00:59:17.664Z,94.71
2022-09-14T01:00:05.530Z,95.03
2022-09-14T01:01:08.608Z,94.50
2022-09-14T01:02:05.570Z,94.82
2022-09-14T01:03:06.629Z,94.92
2022-09-14T01:04:12.975Z,94.71
2022-09-14T01:05:05.860Z,95.03
2022-09-14T01:06:05.341Z,95.03
2022-09-14T01:07:05.357Z,95.36
2022-09-14T01:08:06.549Z,95.25
2022-09-14T01:09:11.820Z,95.14
2022-09-14T01:10:05.356Z,94.92
2022-09-14T01:11:09.302Z,95.25
2022-09-14T01:12:05.256Z,94.82
2022-09-14T01:13:06.655Z,95.03
2022-09-14T01:14:12.449Z,95.36
2022-09-14T01:15:05.675Z,95.03
2022-09-14T01:16:06.683Z,95.46
2022-09-14T01:17:05.961Z,95.14
2022-09-14T01:18:05.173Z,95.14
2022-09-14T01:19:05.631Z,95.14
2022-09-14T01:20:11.422Z,95.25
2022-09-14T01:21:05.111Z,95.68
2022-09-14T01:22:05.033Z,95.57
2022-09-14T01:23:05.085Z,95.36
2022-09-14T01:24:05.467Z,95.36
2022-09-14T01:25:05.243Z,95.57
2022-09-14T01:26:11.603Z,95.36
2022-09-14T01:27:07.621Z,95.68
2022-09-14T01:28:05.053Z,95.36
2022-09-14T01:29:05.095Z,95.46
2022-09-14T01:30:05.816Z,93.94
2022-09-14T01:31:13.986Z,93.63
2022-09-14T01:32:05.285Z,95.57
2022-09-14T01:33:08.289Z,93.73
2022-09-14T01:34:05.116Z,93.78
2022-09-14T01:35:05.528Z,94.15
2022-09-14T01:36:05.051Z,93.73
2022-09-14T01:37:13.300Z,93.89
2022-09-14T01:38:05.394Z,93.94
2022-09-14T01:39:05.355Z,94.10
2022-09-14T01:40:07.639Z,93.84
2022-09-14T01:41:05.908Z,94.05
2022-09-14T01:42:13.653Z,94.37
2022-09-14T01:43:04.874Z,95.68
2022-09-14T01:44:04.837Z,94.37
2022-09-14T01:45:05.935Z,94.05
2022-09-14T01:46:05.038Z,94.10
2022-09-14T01:47:04.926Z,94.15
2022-09-14T01:48:12.052Z,94.26
2022-09-14T01:49:06.131Z,94.47
2022-09-14T01:50:05.059Z,94.58
2022-09-14T01:51:05.360Z,94.15
2022-09-14T01:52:05.738Z,94.74
2022-09-14T01:53:12.731Z,94.53
2022-09-14T01:54:05.639Z,94.58
2022-09-14T01:55:05.032Z,94.37
2022-09-14T01:56:04.751Z,94.53
2022-09-14T01:57:07.371Z,94.53
2022-09-14T01:58:11.291Z,94.69
2022-09-14T01:59:05.049Z,94.69
2022-09-14T02:00:05.701Z,94.31
2022-09-14T02:01:05.162Z,94.69
2022-09-14T02:02:04.617Z,94.47
2022-09-14T02:03:05.342Z,94.37
2022-09-14T02:04:11.791Z,94.95
2022-09-14T02:05:04.460Z,94.69
2022-09-14T02:06:05.750Z,94.69
2022-09-14T02:07:04.755Z,94.79
2022-09-14T02:08:05.097Z,94.53
2022-09-14T02:09:10.762Z,94.69
2022-09-14T02:10:05.300Z,95.06
2022-09-14T02:11:05.603Z,95.28
2022-09-14T02:12:04.498Z,95.12
2022-09-14T02:13:19.191Z,95.01
2022-09-14T02:14:04.790Z,95.12
2022-09-14T02:15:11.548Z,94.74
2022-09-14T02:16:05.213Z,95.01
2022-09-14T02:17:11.601Z,95.22
2022-09-14T02:18:04.433Z,95.50
2022-09-14T02:19:04.466Z,95.88
2022-09-14T02:20:12.855Z,95.44
2022-09-14T02:21:04.456Z,95.01
2022-09-14T02:22:04.427Z,95.39
2022-09-14T02:23:04.566Z,95.39
2022-09-14T02:24:04.350Z,95.61
2022-09-14T02:25:10.664Z,95.01
2022-09-14T02:26:04.386Z,96.04
2022-09-14T02:27:04.271Z,95.44
2022-09-14T02:28:05.668Z,95.33
2022-09-14T02:29:04.237Z,95.88
2022-09-14T02:30:04.221Z,95.61
2022-09-14T02:31:10.934Z,95.55
2022-09-14T02:32:04.250Z,95.55
2022-09-14T02:33:04.393Z,95.88
2022-09-14T02:34:04.115Z,95.71
2022-09-14T02:35:04.102Z,95.61
2022-09-14T02:36:04.171Z,95.99
2022-09-14T02:37:10.550Z,95.50
2022-09-14T02:38:04.063Z,96.10
2022-09-14T02:39:04.420Z,96.15
2022-09-14T02:40:04.112Z,95.61
2022-09-14T02:41:04.155Z,96.38
2022-09-14T02:42:10.609Z,95.61
2022-09-14T02:43:04.193Z,96.10
2022-09-14T02:44:06.169Z,96.54
2022-09-14T02:45:04.025Z,95.82
2022-09-14T02:46:05.251Z,96.21
2022-09-14T02:47:04.240Z,95.61
2022-09-14T02:48:10.253Z,95.88
2022-09-14T02:49:04.017Z,96.21
2022-09-14T02:50:03.912Z,96.21
2022-09-14T02:51:04.010Z,96.21
2022-09-14T02:52:03.987Z,96.65
2022-09-14T02:53:04.382Z,96.54
2022-09-14T02:54:48.086Z,164.38
2022-09-14T02:55:48.016Z,131.27
2022-09-14T02:56:48.124Z,117.05
2022-09-14T02:57:49.284Z,110.05
2022-09-14T02:58:54.512Z,105.88
2022-09-14T02:59:48.070Z,103.27
2022-09-14T03:00:48.075Z,101.33
2022-09-14T03:01:48.175Z,99.82
2022-09-14T03:02:48.021Z,99.35
2022-09-14T03:03:54.896Z,98.70
2022-09-14T03:04:48.543Z,98.01
2022-09-14T03:05:48.071Z,97.72
2022-09-14T03:06:48.429Z,97.55
2022-09-14T03:07:47.923Z,97.61
2022-09-14T03:08:48.270Z,97.21
2022-09-14T03:09:54.604Z,97.50
2022-09-14T03:10:48.170Z,97.33
2022-09-14T03:11:47.906Z,97.16
2022-09-14T03:12:47.819Z,97.44
2022-09-14T03:13:48.282Z,96.88
2022-09-14T03:14:47.805Z,97.10
2022-09-14T03:15:54.196Z,97.55
2022-09-14T03:16:47.788Z,96.71
2022-09-14T03:17:47.787Z,96.99
2022-09-14T03:18:48.593Z,96.76
2022-09-14T03:19:47.719Z,97.33
2022-09-14T03:20:54.728Z,96.71
2022-09-14T03:21:47.718Z,96.93
2022-09-14T03:22:47.795Z,96.88
2022-09-14T03:23:47.766Z,97.33
2022-09-14T03:24:47.712Z,96.99
2022-09-14T03:25:54.857Z,96.60
2022-09-14T03:26:47.687Z,96.93
2022-09-14T03:27:47.730Z,96.43
2022-09-14T03:28:47.609Z,97.33
2022-09-14T03:29:47.670Z,97.61
2022-09-14T03:30:47.645Z,96.26
2022-09-14T03:31:54.913Z,96.49
2022-09-14T03:32:48.009Z,96.43
2022-09-14T03:33:47.587Z,97.04
2022-09-14T03:34:48.341Z,96.54
2022-09-14T03:35:47.604Z,97.10
2022-09-14T03:36:47.507Z,96.21
2022-09-14T03:37:54.087Z,96.99
2022-09-14T03:38:47.777Z,96.88
2022-09-14T03:39:47.703Z,96.76
2022-09-14T03:40:47.669Z,96.32
2022-09-14T03:41:47.972Z,96.21
2022-09-14T03:42:47.613Z,96.99
2022-09-14T03:43:54.504Z,97.21
2022-09-14T03:44:47.503Z,96.32
2022-09-14T03:45:48.503Z,97.21
2022-09-14T03:46:47.741Z,96.99
2022-09-14T03:47:47.532Z,97.10
2022-09-14T03:48:53.738Z,97.21
2022-09-14T03:49:47.343Z,96.88
2022-09-14T03:50:47.407Z,97.10
2022-09-14T03:51:47.527Z,96.54
2022-09-14T03:52:48.064Z,96.99
2022-09-14T03:53:47.242Z,96.99
2022-09-14T03:54:53.931Z,96.99
2022-09-14T03:55:47.857Z,97.10
2022-09-14T03:56:47.310Z,97.27
2022-09-14T03:57:48.472Z,97.21
2022-09-14T03:58:47.336Z,97.21
2022-09-14T03:59:53.103Z,97.27
2022-09-14T04:00:53.741Z,97.33
2022-09-14T04:01:47.263Z,96.88
2022-09-14T04:02:48.101Z,97.04
2022-09-14T04:03:47.366Z,97.04
2022-09-14T04:04:47.143Z,97.10
2022-09-14T04:05:47.181Z,96.88
2022-09-14T04:06:54.535Z,97.21
2022-09-14T04:07:47.237Z,97.78
2022-09-14T04:08:47.272Z,97.44
2022-09-14T04:09:47.192Z,97.44
2022-09-14T04:10:48.444Z,97.27
2022-09-14T04:11:53.467Z,97.78
2022-09-14T04:12:47.313Z,97.38
2022-09-14T04:13:47.055Z,96.99
2022-09-14T04:14:47.186Z,97.04
2022-09-14T04:15:47.129Z,97.38
2022-09-14T04:16:47.046Z,97.55
2022-09-14T04:17:53.292Z,97.67
2022-09-14T04:18:47.135Z,97.78
2022-09-14T04:19:46.987Z,97.67
2022-09-14T04:20:47.092Z,97.55
2022-09-14T04:21:47.056Z,98.12
2022-09-14T04:22:54.665Z,98.01
2022-09-14T04:24:12.833Z,97.55
2022-09-14T04:24:48.551Z,97.78
2022-09-14T04:25:47.085Z,97.21
2022-09-14T04:26:47.142Z,97.67
2022-09-14T04:27:59.035Z,97.95
2022-09-14T04:28:55.345Z,98.12
2022-09-14T04:29:47.009Z,97.33
2022-09-14T04:30:46.819Z,98.01
2022-09-14T04:31:46.818Z,97.78
2022-09-14T04:32:46.992Z,96.88
2022-09-14T04:33:46.963Z,98.24
2022-09-14T04:34:53.049Z,97.61
2022-09-14T04:35:46.717Z,97.55
2022-09-14T04:36:46.733Z,98.01
2022-09-14T04:37:46.705Z,98.01
2022-09-14T04:38:46.675Z,97.44
2022-09-14T04:39:54.210Z,98.01
2022-09-14T04:40:48.075Z,97.38
2022-09-14T04:41:48.062Z,97.38
2022-09-14T04:42:48.335Z,98.01
2022-09-14T04:43:48.443Z,97.67
2022-09-14T04:44:53.375Z,97.84
2022-09-14T04:45:46.983Z,97.21
2022-09-14T04:46:47.258Z,97.33
2022-09-14T04:47:47.083Z,97.72
2022-09-14T04:48:47.199Z,97.61
2022-09-14T04:49:47.114Z,97.95
2022-09-14T04:50:54.147Z,97.67
2022-09-14T04:51:47.837Z,98.12
2022-09-14T04:52:47.871Z,97.89
2022-09-14T04:53:46.572Z,98.12
2022-09-14T04:54:46.548Z,97.55
2022-09-14T04:55:53.057Z,97.27
2022-09-14T04:56:46.571Z,98.01
2022-09-14T04:57:47.018Z,97.33
2022-09-14T04:58:51.242Z,97.55
2022-09-14T04:59:48.271Z,97.67
2022-09-14T05:00:53.407Z,97.61
2022-09-14T05:01:46.536Z,97.61
2022-09-14T05:02:46.843Z,97.10
2022-09-14T05:03:48.418Z,97.95
2022-09-14T05:04:46.958Z,97.38
2022-09-14T05:05:46.511Z,97.84
2022-09-14T05:06:52.827Z,97.27
2022-09-14T05:07:47.497Z,97.55
2022-09-14T05:08:46.722Z,97.21
2022-09-14T05:09:46.871Z,97.44
2022-09-14T05:10:46.453Z,96.99
2022-09-14T05:11:46.724Z,97.38
2022-09-14T05:12:52.953Z,97.55
2022-09-14T05:13:49.937Z,96.99
2022-09-14T05:14:46.384Z,96.76
2022-09-14T05:15:46.501Z,97.33
2022-09-14T05:16:52.985Z,96.88
2022-09-14T05:17:52.783Z,96.65
2022-09-14T05:18:46.290Z,96.38
2022-09-14T05:19:47.426Z,96.88
2022-09-14T05:20:46.311Z,96.71
2022-09-14T05:21:46.755Z,97.16
2022-09-14T05:22:46.391Z,96.82
2022-09-14T05:23:52.761Z,96.76
2022-09-14T05:24:47.525Z,96.60
2022-09-14T05:25:46.236Z,96.43
2022-09-14T05:26:48.458Z,96.82
2022-09-14T05:27:46.229Z,96.49
2022-09-14T05:28:46.257Z,96.43
2022-09-14T05:29:54.159Z,97.10
2022-09-14T05:30:46.257Z,96.49
2022-09-14T05:31:47.349Z,96.04
2022-09-14T05:32:46.402Z,96.43
2022-09-14T05:33:47.510Z,96.15
2022-09-14T05:34:53.434Z,96.10
2022-09-14T05:35:46.293Z,96.10
2022-09-14T05:36:49.533Z,96.15
2022-09-14T05:37:47.326Z,95.88
2022-09-14T05:38:47.401Z,95.82
2022-09-14T05:39:45.987Z,95.99
2022-09-14T05:40:52.403Z,95.82
2022-09-14T05:41:53.292Z,95.61
2022-09-14T05:42:45.971Z,95.66
2022-09-14T05:43:45.978Z,95.77
2022-09-14T05:44:46.160Z,95.55
2022-09-14T05:45:53.811Z,95.44
2022-09-14T05:46:54.213Z,95.33
2022-09-14T05:47:46.103Z,95.44
2022-09-14T05:48:45.923Z,95.33
2022-09-14T05:49:45.928Z,95.44
2022-09-14T05:50:52.314Z,94.85
2022-09-14T05:51:46.027Z,95.22
2022-09-14T05:52:45.813Z,95.17
2022-09-14T05:53:45.686Z,95.12
2022-09-14T05:54:45.734Z,95.06
2022-09-14T05:55:53.084Z,95.06
2022-09-14T05:56:45.704Z,95.01
2022-09-14T05:57:45.803Z,94.79
2022-09-14T05:58:45.686Z,94.69
2022-09-14T05:59:46.285Z,94.85
2022-09-14T06:00:53.138Z,94.58
2022-09-14T06:01:45.776Z,94.53
2022-09-14T06:02:45.642Z,94.69
2022-09-14T06:03:45.829Z,94.63
2022-09-14T06:04:45.678Z,94.47
2022-09-14T06:05:52.848Z,95.17
2022-09-14T06:06:56.175Z,94.37
2022-09-14T06:07:47.116Z,94.90
2022-09-14T06:08:45.557Z,94.31
2022-09-14T06:09:46.381Z,94.53
2022-09-14T06:10:52.277Z,94.37
2022-09-14T06:11:46.212Z,94.74
2022-09-14T06:12:45.512Z,94.37
2022-09-14T06:13:45.509Z,94.42
2022-09-14T06:14:45.536Z,94.05
2022-09-14T06:15:55.727Z,94.37
2022-09-14T06:16:45.594Z,94.37
2022-09-14T06:17:45.968Z,93.94
2022-09-14T06:18:45.563Z,93.94
2022-09-14T06:19:45.422Z,94.05
2022-09-14T06:20:51.627Z,94.15
2022-09-14T06:21:45.545Z,94.05
2022-09-14T06:22:45.476Z,93.84
2022-09-14T06:23:45.376Z,94.10
2022-09-14T06:24:45.966Z,95.68
2022-09-14T06:25:45.419Z,94.42
2022-09-14T06:26:51.665Z,94.15
2022-09-14T06:27:45.858Z,95.36
2022-09-14T06:28:45.532Z,95.46
2022-09-14T06:29:45.514Z,95.57
2022-09-14T06:30:58.915Z,95.68
2022-09-14T06:31:45.236Z,95.36
2022-09-14T06:32:51.757Z,95.36
2022-09-14T06:33:45.697Z,95.36
2022-09-14T06:34:45.194Z,95.03
2022-09-14T06:35:45.125Z,95.25
2022-09-14T06:36:45.599Z,95.68
2022-09-14T06:37:45.287Z,95.14
2022-09-14T06:38:51.646Z,95.36
2022-09-14T06:39:45.273Z,95.36
2022-09-14T06:40:45.304Z,95.14
2022-09-14T06:41:45.095Z,95.03
2022-09-14T06:42:45.247Z,94.92
2022-09-14T06:43:52.789Z,95.25
2022-09-14T06:44:47.837Z,94.92
2022-09-14T06:45:46.486Z,95.03
2022-09-14T06:46:47.621Z,95.03
2022-09-14T06:47:45.240Z,94.39
2022-09-14T06:48:52.231Z,94.82
2022-09-14T06:49:45.412Z,94.39
2022-09-14T06:50:48.803Z,94.28
2022-09-14T06:51:46.040Z,94.50
2022-09-14T06:52:50.265Z,94.28
2022-09-14T06:53:51.473Z,94.39
2022-09-14T06:54:44.899Z,93.86
2022-09-14T06:55:45.254Z,94.18
2022-09-14T06:56:44.884Z,93.65
2022-09-14T06:57:45.054Z,93.86
2022-09-14T06:58:51.248Z,93.75
2022-09-14T06:59:44.867Z,93.44
2022-09-14T07:00:44.874Z,93.44
2022-09-14T07:01:44.869Z,92.82
2022-09-14T07:02:53.573Z,93.86
2022-09-14T07:03:53.603Z,92.41
2022-09-14T07:04:44.911Z,92.41
2022-09-14T07:05:44.752Z,92.31
2022-09-14T07:06:44.845Z,92.31
2022-09-14T07:07:44.860Z,92.21
2022-09-14T07:08:44.856Z,92.31
2022-09-14T07:09:51.217Z,92.00
2022-09-14T07:10:44.684Z,92.31
2022-09-14T07:11:44.824Z,91.60
2022-09-14T07:12:44.759Z,91.80
2022-09-14T07:13:44.977Z,91.70
2022-09-14T07:14:53.059Z,91.80
2022-09-14T07:15:44.761Z,91.70
2022-09-14T07:16:44.653Z,91.80
2022-09-14T07:17:44.738Z,91.90
2022-09-14T07:18:44.742Z,91.60
2022-09-14T07:19:44.657Z,91.60
2022-09-14T07:20:52.158Z,91.60
2022-09-14T07:21:45.776Z,91.80
2022-09-14T07:22:44.534Z,91.70
2022-09-14T07:23:45.119Z,91.90
2022-09-14T07:24:44.952Z,91.80
2022-09-14T07:25:45.142Z,91.40
2022-09-14T07:26:51.178Z,92.00
2022-09-14T07:27:45.299Z,91.30
2022-09-14T07:28:44.809Z,91.10
2022-09-14T07:29:44.503Z,90.91
2022-09-14T07:30:44.519Z,91.90
2022-09-14T07:31:53.457Z,90.51
2022-09-14T07:32:44.691Z,91.00
2022-09-14T07:33:44.659Z,90.71
2022-09-14T07:34:44.447Z,90.03
2022-09-14T07:35:44.359Z,91.20
2022-09-14T07:36:44.851Z,90.91
2022-09-14T07:37:50.821Z,90.22
2022-09-14T07:38:52.906Z,90.91
2022-09-14T07:39:46.040Z,91.00
2022-09-14T07:40:45.097Z,90.12
2022-09-14T07:41:44.677Z,91.00
2022-09-14T07:42:44.298Z,90.22
2022-09-14T07:43:51.021Z,90.03
2022-09-14T07:44:56.029Z,89.83
2022-09-14T07:45:45.066Z,89.93
2022-09-14T07:46:44.408Z,89.64
2022-09-14T07:47:44.323Z,89.54
2022-09-14T07:48:52.663Z,89.45
2022-09-14T07:49:48.271Z,88.97
2022-09-14T07:50:44.205Z,88.50
2022-09-14T07:51:44.291Z,88.41
2022-09-14T07:52:44.217Z,88.50
2022-09-14T07:53:44.254Z,88.32
2022-09-14T07:54:50.481Z,88.13
2022-09-14T07:55:44.134Z,87.85
2022-09-14T07:56:44.169Z,87.76
2022-09-14T07:57:55.720Z,87.58
2022-09-14T07:58:45.693Z,87.49
2022-09-14T07:59:44.071Z,87.58
2022-09-14T08:00:50.481Z,87.21
2022-09-14T08:01:44.233Z,87.21
2022-09-14T08:02:44.258Z,87.12
2022-09-14T08:03:44.133Z,87.21
2022-09-14T08:04:44.077Z,86.67
2022-09-14T08:05:51.150Z,87.21
2022-09-14T08:06:44.005Z,86.58
2022-09-14T08:07:44.021Z,86.94
2022-09-14T08:08:43.943Z,86.14
2022-09-14T08:09:43.966Z,86.67
2022-09-14T08:10:50.963Z,86.23
2022-09-14T08:11:43.950Z,86.23
2022-09-14T08:12:43.960Z,85.96
2022-09-14T08:13:44.029Z,85.78
2022-09-14T08:14:44.292Z,85.61
2022-09-14T08:15:43.855Z,85.43
2022-09-14T08:16:50.389Z,85.70
2022-09-14T08:17:44.225Z,85.43
2022-09-14T08:18:43.893Z,85.52
2022-09-14T08:19:43.833Z,85.26
2022-09-14T08:20:43.923Z,85.26
2022-09-14T08:21:50.175Z,85.00
2022-09-14T08:22:43.774Z,85.26
2022-09-14T08:23:43.777Z,84.74
2022-09-14T08:24:43.813Z,85.09
2022-09-14T08:25:43.733Z,85.35
2022-09-14T08:26:50.216Z,85.26
2022-09-14T08:27:43.767Z,85.35
2022-09-14T08:28:44.086Z,84.92
2022-09-14T08:29:43.912Z,85.26
2022-09-14T08:30:44.222Z,84.66
2022-09-14T08:31:43.844Z,85.09
2022-09-14T08:32:51.033Z,85.00
2022-09-14T08:33:44.068Z,84.66
2022-09-14T08:34:43.762Z,84.66
2022-09-14T08:35:57.374Z,84.57
2022-09-14T08:36:45.192Z,84.15
2022-09-14T08:37:50.057Z,84.40
2022-09-14T08:38:43.662Z,84.15
2022-09-14T08:39:46.225Z,83.89
2022-09-14T08:40:43.617Z,84.06
2022-09-14T08:41:43.615Z,83.14
2022-09-14T08:42:43.538Z,82.90
2022-09-14T08:43:49.964Z,82.90
2022-09-14T08:44:43.559Z,82.57
2022-09-14T08:45:43.812Z,82.08
2022-09-14T08:46:43.911Z,81.84
2022-09-14T08:47:43.467Z,81.92
2022-09-14T08:48:43.515Z,81.53
2022-09-14T08:49:49.924Z,81.45
2022-09-14T08:50:43.466Z,81.61
2022-09-14T08:51:43.470Z,81.37
2022-09-14T08:52:43.499Z,80.82
2022-09-14T08:53:43.459Z,80.66
2022-09-14T08:54:43.375Z,80.35
2022-09-14T08:55:49.829Z,80.43
2022-09-14T08:56:44.490Z,79.97
2022-09-14T08:57:43.439Z,80.28
2022-09-14T08:58:48.082Z,79.97
2022-09-14T08:59:44.971Z,79.74
2022-09-14T09:00:43.479Z,79.82
2022-09-14T09:01:50.288Z,79.59
2022-09-14T09:02:43.740Z,79.82
2022-09-14T09:03:43.377Z,79.59
2022-09-14T09:04:43.294Z,79.74
2022-09-14T09:05:43.222Z,79.74
2022-09-14T09:06:43.190Z,79.97
2022-09-14T09:07:50.982Z,79.66
2022-09-14T09:08:43.217Z,79.59
2022-09-14T09:09:43.353Z,79.74
2022-09-14T09:10:43.221Z,79.74
2022-09-14T09:11:43.586Z,79.59
2022-09-14T09:12:49.802Z,79.51
2022-09-14T09:13:43.153Z,79.44
2022-09-14T09:14:43.532Z,79.29
2022-09-14T09:15:43.584Z,79.36
2022-09-14T09:16:43.176Z,79.29
2022-09-14T09:17:44.037Z,79.21
2022-09-14T09:18:49.893Z,79.36
2022-09-14T09:19:43.324Z,79.14
2022-09-14T09:20:43.078Z,79.14
2022-09-14T09:21:43.067Z,78.84
2022-09-14T09:22:43.245Z,78.91
2022-09-14T09:23:50.013Z,78.69
2022-09-14T09:24:46.872Z,79.06
2022-09-14T09:25:43.159Z,78.99
2022-09-14T09:26:43.263Z,78.99
2022-09-14T09:27:46.466Z,78.99
2022-09-14T09:28:49.597Z,78.69
2022-09-14T09:29:43.331Z,78.76
2022-09-14T09:30:43.187Z,78.99
2022-09-14T09:31:43.050Z,79.14
2022-09-14T09:32:42.949Z,79.14
2022-09-14T09:33:49.232Z,79.06
2022-09-14T09:34:44.346Z,79.14
2022-09-14T09:35:42.868Z,78.91
2022-09-14T09:36:42.845Z,78.99
2022-09-14T09:37:43.978Z,78.99
2022-09-14T09:38:43.143Z,79.29
2022-09-14T09:39:50.223Z,79.36
2022-09-14T09:40:43.386Z,79.51
2022-09-14T09:41:42.799Z,79.21
2022-09-14T09:42:43.093Z,79.29
2022-09-14T09:43:49.658Z,79.14
2022-09-14T09:44:44.587Z,78.91
2022-09-14T09:45:50.577Z,78.69
2022-09-14T09:46:43.342Z,78.99
2022-09-14T09:47:42.945Z,78.84
2022-09-14T09:48:43.012Z,78.47
2022-09-14T09:49:42.728Z,78.62
2022-09-14T09:50:42.835Z,78.47
2022-09-14T09:51:49.369Z,78.18
2022-09-14T09:52:42.740Z,78.69
2022-09-14T09:53:42.672Z,78.40
2022-09-14T09:54:42.606Z,78.62
2022-09-14T09:55:42.674Z,78.54
2022-09-14T09:56:42.724Z,78.18
2022-09-14T09:57:49.219Z,78.40
2022-09-14T09:58:42.489Z,78.10
2022-09-14T09:59:43.283Z,78.18
2022-09-14T10:00:42.586Z,78.18
2022-09-14T10:01:42.599Z,78.40
2022-09-14T10:02:48.795Z,78.10
2022-09-14T10:03:42.580Z,78.18
2022-09-14T10:04:42.577Z,77.96
2022-09-14T10:05:43.385Z,77.96
2022-09-14T10:06:42.468Z,77.60
2022-09-14T10:07:50.372Z,77.67
2022-09-14T10:08:42.701Z,77.53
2022-09-14T10:09:42.456Z,77.60
2022-09-14T10:10:42.801Z,77.24
2022-09-14T10:11:42.478Z,77.60
2022-09-14T10:12:49.058Z,77.24
2022-09-14T10:13:42.439Z,77.45
2022-09-14T10:14:42.951Z,77.38
2022-09-14T10:15:42.521Z,77.45
2022-09-14T10:16:43.525Z,77.24
2022-09-14T10:17:49.347Z,77.31
2022-09-14T10:18:45.621Z,77.38
2022-09-14T10:19:43.797Z,77.60
2022-09-14T10:20:42.427Z,77.60
2022-09-14T10:21:42.236Z,77.45
2022-09-14T10:22:43.492Z,77.31
2022-09-14T10:23:48.951Z,77.38
2022-09-14T10:24:43.285Z,77.74
2022-09-14T10:25:51.187Z,77.38
2022-09-14T10:26:42.475Z,77.31
2022-09-14T10:27:42.974Z,77.24
2022-09-14T10:28:42.282Z,76.82
2022-09-14T10:29:48.508Z,76.82
2022-09-14T10:30:42.618Z,76.82
2022-09-14T10:31:43.410Z,76.53
2022-09-14T10:32:42.536Z,76.39
2022-09-14T10:33:42.558Z,76.19
2022-09-14T10:34:48.583Z,76.12
2022-09-14T10:35:42.124Z,75.98
2022-09-14T10:36:44.143Z,76.12
2022-09-14T10:37:43.025Z,75.84
2022-09-14T10:38:42.495Z,75.84
2022-09-14T10:39:50.469Z,75.84
2022-09-14T10:40:43.011Z,75.64
2022-09-14T10:41:41.999Z,75.70
2022-09-14T10:42:42.066Z,75.77
2022-09-14T10:43:43.316Z,75.70
2022-09-14T10:44:48.466Z,75.70
2022-09-14T10:45:42.072Z,75.70
2022-09-14T10:46:42.062Z,75.91
2022-09-14T10:47:42.198Z,75.84
2022-09-14T10:48:44.208Z,75.98
2022-09-14T10:49:49.387Z,75.91
2022-09-14T10:50:42.035Z,75.70
2022-09-14T10:51:42.254Z,75.50
2022-09-14T10:52:42.949Z,75.43
2022-09-14T10:53:51.005Z,75.36
2022-09-14T10:54:48.118Z,75.29
2022-09-14T10:55:41.805Z,75.16
2022-09-14T10:56:41.975Z,74.96
2022-09-14T10:57:41.792Z,75.03
2022-09-14T10:58:41.916Z,74.82
2022-09-14T10:59:41.861Z,74.76
2022-09-14T11:00:48.305Z,74.82
2022-09-14T11:01:42.030Z,74.62
2022-09-14T11:02:41.849Z,74.43
2022-09-14T11:03:45.703Z,74.36
2022-09-14T11:04:41.860Z,74.03
2022-09-14T11:05:48.308Z,74.10
2022-09-14T11:06:41.813Z,73.96
2022-09-14T11:07:42.916Z,74.29
2022-09-14T11:08:41.781Z,73.96
2022-09-14T11:09:41.831Z,73.71
2022-09-14T11:10:48.209Z,73.83
2022-09-14T11:11:41.847Z,73.83
2022-09-14T11:12:41.656Z,74.23
2022-09-14T11:13:41.715Z,74.16
2022-09-14T11:14:41.656Z,74.23
2022-09-14T11:15:48.119Z,73.83
2022-09-14T11:16:42.010Z,74.43
2022-09-14T11:17:41.638Z,73.96
2022-09-14T11:18:41.619Z,73.96
2022-09-14T11:19:41.539Z,73.77
2022-09-14T11:20:42.925Z,74.16
2022-09-14T11:21:48.096Z,73.96
2022-09-14T11:22:41.551Z,73.90
2022-09-14T11:23:41.568Z,73.83
2022-09-14T11:24:41.452Z,73.83
2022-09-14T11:25:41.442Z,73.83
2022-09-14T11:26:48.562Z,73.90
2022-09-14T11:27:42.705Z,73.77
2022-09-14T11:28:41.381Z,73.83
2022-09-14T11:29:41.736Z,73.71
2022-09-14T11:30:41.473Z,73.57
2022-09-14T11:32:04.166Z,73.57
2022-09-14T11:32:42.342Z,73.57
2022-09-14T11:33:41.650Z,73.25
2022-09-14T11:34:41.322Z,73.06
2022-09-14T11:35:41.606Z,72.93
2022-09-14T11:36:41.614Z,73.06
2022-09-14T11:37:48.738Z,73.06
2022-09-14T11:38:41.699Z,73.06
2022-09-14T11:39:42.347Z,72.93
2022-09-14T11:40:42.270Z,72.75
2022-09-14T11:41:41.503Z,72.62
2022-09-14T11:42:41.247Z,72.37
2022-09-14T11:43:49.004Z,72.12
2022-09-14T11:44:41.226Z,72.12
2022-09-14T11:45:41.246Z,72.31
2022-09-14T11:46:42.644Z,71.93
2022-09-14T11:47:41.144Z,71.69
2022-09-14T11:48:50.738Z,71.81
2022-09-14T11:49:41.478Z,71.20
2022-09-14T11:50:41.318Z,70.84
2022-09-14T11:51:43.951Z,70.96
2022-09-14T11:52:41.141Z,70.84
2022-09-14T11:53:41.092Z,70.60
2022-09-14T11:55:26.432Z,116.08
2022-09-14T11:56:26.576Z,95.57
2022-09-14T11:57:26.548Z,85.35
2022-09-14T11:58:26.485Z,80.12
2022-09-14T11:59:27.454Z,77.10
2022-09-14T12:00:33.368Z,75.36
2022-09-14T12:01:38.178Z,74.10
2022-09-14T12:02:26.500Z,73.32
2022-09-14T12:03:26.469Z,72.56
2022-09-14T12:04:26.660Z,71.93
2022-09-14T12:05:26.824Z,72.06
2022-09-14T12:06:33.298Z,71.93
2022-09-14T12:07:26.394Z,71.32
2022-09-14T12:08:26.538Z,71.26
2022-09-14T12:09:26.199Z,71.20
2022-09-14T12:10:26.401Z,71.02
2022-09-14T12:11:32.717Z,71.20
2022-09-14T12:12:26.213Z,71.14
2022-09-14T12:13:26.213Z,71.08
2022-09-14T12:14:38.589Z,71.26
2022-09-14T12:15:26.750Z,70.90
2022-09-14T12:16:34.623Z,71.26
2022-09-14T12:17:39.420Z,71.26
2022-09-14T12:18:34.552Z,71.44
2022-09-14T12:19:26.092Z,71.32
2022-09-14T12:20:26.232Z,71.20
2022-09-14T12:21:26.217Z,71.62
2022-09-14T12:22:32.841Z,71.08
2022-09-14T12:23:26.539Z,71.32
2022-09-14T12:24:26.163Z,71.44
2022-09-14T12:25:26.402Z,71.26
2022-09-14T12:26:32.594Z,71.20
2022-09-14T12:27:32.565Z,71.26
2022-09-14T12:28:26.284Z,70.96
2022-09-14T12:29:30.224Z,70.96
2022-09-14T12:30:26.110Z,70.96
2022-09-14T12:31:26.103Z,71.20
2022-09-14T12:32:26.011Z,70.84
2022-09-14T12:33:34.422Z,70.90
2022-09-14T12:34:25.906Z,71.08
2022-09-14T12:35:27.165Z,70.66
2022-09-14T12:36:26.925Z,70.72
2022-09-14T12:37:26.156Z,71.02
2022-09-14T12:38:27.418Z,71.32
2022-09-14T12:39:32.792Z,70.60
2022-09-14T12:40:26.020Z,70.78
2022-09-14T12:41:26.269Z,70.72
2022-09-14T12:42:26.216Z,70.66
2022-09-14T12:43:26.155Z,70.60
2022-09-14T12:44:27.191Z,70.60
2022-09-14T12:45:32.437Z,70.84
2022-09-14T12:46:27.000Z,70.72
2022-09-14T12:47:25.770Z,70.72
2022-09-14T12:48:26.134Z,70.48
2022-09-14T12:49:27.031Z,70.90
2022-09-14T12:50:32.475Z,70.42
2022-09-14T12:51:25.750Z,70.78
2022-09-14T12:52:29.885Z,70.30
2022-09-14T12:53:25.687Z,70.60